Time;durP1;ratioP1;P1;durP2;ratioP2;P2;SDS_P1;SDS_P2;PMS_P1;PMS_P2;Temp;Humidity;BMP_temperature;BMP_pressure;BME280_temperature;BME280_humidity;BME280_pressure;Samples;Min_cycle;Max_cycle;Signal;HPM_P1;HPM_P2
2022/05/21 00:07:51;;;;;;;2.20;2.00;;;19.60;87.80;;;;;;21085905;28;20235;-63
2022/05/21 00:17:53;;;;;;;2.67;2.03;;;19.40;86.10;;;;;;21084234;28;20235;-64
2022/05/21 00:27:55;;;;;;;2.60;1.80;;;19.00;85.50;;;;;;21084446;28;20309;-63
2022/05/21 00:37:56;;;;;;;8.63;2.20;;;18.70;86.20;;;;;;21083221;28;20212;-64
2022/05/21 00:47:58;;;;;;;2.33;2.03;;;18.40;86.50;;;;;;21082368;28;20639;-61
2022/05/21 01:08:32;;;;;;;3.03;2.00;;;18.10;87.60;;;;;;20997377;28;20203;-71
2022/05/21 01:18:33;;;;;;;3.80;1.90;;;17.90;87.70;;;;;;20996036;28;20772;-75
2022/05/21 01:28:37;;;;;;;1.83;1.73;;;17.80;88.20;;;;;;20995494;28;20275;-70
2022/05/21 01:38:40;;;;;;;4.43;2.00;;;17.70;88.50;;;;;;20995738;28;20219;-63
2022/05/21 01:48:42;;;;;;;3.73;2.20;;;17.60;88.50;;;;;;20994737;28;20215;-64
2022/05/21 01:58:44;;;;;;;5.67;1.97;;;17.50;88.50;;;;;;20994923;28;20227;-66
2022/05/21 02:08:46;;;;;;;2.60;1.73;;;17.40;88.30;;;;;;20994242;28;20688;-64
2022/05/21 02:18:47;;;;;;;4.03;1.63;;;17.50;87.40;;;;;;20995072;28;20232;-72
2022/05/21 02:28:50;;;;;;;3.67;1.63;;;17.50;86.40;;;;;;20994082;28;20298;-66
2022/05/21 02:49:11;;;;;;;3.40;1.50;;;17.20;85.00;;;;;;21008834;28;20208;-70
2022/05/21 02:59:14;;;;;;;2.57;1.60;;;17.10;84.70;;;;;;21006838;28;20679;-74
2022/05/21 03:19:36;;;;;;;4.07;3.37;;;17.00;84.00;;;;;;21008925;28;20252;-67
2022/05/21 03:29:38;;;;;;;4.70;4.20;;;17.10;83.20;;;;;;21006468;28;20215;-64
2022/05/21 03:39:40;;;;;;;5.03;2.40;;;17.10;82.50;;;;;;21004964;28;20306;-61
2022/05/21 03:49:42;;;;;;;3.40;2.27;;;17.10;82.60;;;;;;21002869;28;20210;-62
2022/05/21 03:59:44;;;;;;;4.13;1.93;;;17.10;82.50;;;;;;21019029;28;20238;-62
2022/05/21 04:09:49;;;;;;;3.30;2.00;;;17.10;82.20;;;;;;21001810;28;20220;-61
2022/05/21 04:19:50;;;;;;;2.47;2.00;;;17.10;81.50;;;;;;21015982;28;20249;-64
2022/05/21 04:29:52;;;;;;;4.20;2.10;;;17.20;80.70;;;;;;21001426;28;20217;-66
2022/05/21 04:39:54;;;;;;;3.07;2.10;;;16.90;79.70;;;;;;20999745;28;20231;-63
2022/05/21 04:49:56;;;;;;;4.27;2.03;;;16.80;79.30;;;;;;20998050;28;20258;-63
2022/05/21 04:59:57;;;;;;;3.90;1.90;;;17.10;78.80;;;;;;21085236;28;20236;-63
2022/05/21 05:09:59;;;;;;;3.37;1.70;;;17.20;78.10;;;;;;21081042;28;20224;-62
2022/05/21 05:20:01;;;;;;;2.20;2.00;;;17.00;77.60;;;;;;21080176;28;20636;-62
2022/05/21 05:30:04;;;;;;;7.10;2.13;;;17.10;78.10;;;;;;21079674;28;20212;-63
2022/05/21 05:40:09;;;;;;;4.13;3.20;;;17.30;78.00;;;;;;21078785;28;20299;-68
2022/05/21 05:50:11;;;;;;;3.83;3.00;;;17.40;77.90;;;;;;21061437;28;20216;-66
2022/05/21 06:00:13;;;;;;;5.90;2.90;;;17.40;78.00;;;;;;21078412;28;20294;-64
2022/05/21 06:10:19;;;;;;;4.50;3.27;;;17.40;78.60;;;;;;21077399;28;20211;-70
2022/05/21 06:20:25;;;;;;;4.50;2.83;;;17.50;78.50;;;;;;21051396;28;20337;-63
2022/05/21 06:30:28;;;;;;;7.57;4.50;;;17.50;78.70;;;;;;21093903;28;20292;-63
2022/05/21 06:40:30;;;;;;;4.40;2.90;;;17.40;77.50;;;;;;21012247;28;20235;-61
2022/05/21 06:50:33;;;;;;;6.60;3.10;;;17.30;77.10;;;;;;21064199;28;20575;-68
2022/05/21 07:00:35;;;;;;;3.13;2.30;;;17.20;76.30;;;;;;21091537;28;20240;-61
2022/05/21 07:10:37;;;;;;;3.80;1.90;;;17.40;76.50;;;;;;21063080;28;20593;-63
2022/05/21 07:20:38;;;;;;;4.50;1.80;;;17.60;75.60;;;;;;21006397;28;20295;-62
2022/05/21 07:30:43;;;;;;;4.90;1.70;;;18.00;74.00;;;;;;21006914;28;20547;-64
2022/05/21 07:40:47;;;;;;;5.10;1.73;;;18.00;72.70;;;;;;21004821;28;20236;-66
2022/05/21 07:51:01;;;;;;;4.03;1.67;;;18.10;71.20;;;;;;21004036;28;20225;-78
2022/05/21 08:01:03;;;;;;;3.37;1.77;;;18.20;70.20;;;;;;21022515;28;20234;-73
2022/05/21 08:11:12;;;;;;;4.37;1.53;;;18.20;70.50;;;;;;21114657;28;20227;-65
2022/05/21 08:21:14;;;;;;;2.27;1.50;;;17.80;71.50;;;;;;21037647;28;20317;-68
2022/05/21 08:31:17;;;;;;;2.47;1.53;;;18.20;72.20;;;;;;21027938;28;20204;-66
2022/05/21 08:41:23;;;;;;;4.13;1.60;;;18.20;71.40;;;;;;21082860;28;20230;-66
2022/05/21 08:51:31;;;;;;;4.37;1.93;;;18.50;70.90;;;;;;21082731;28;20257;-62
2022/05/21 09:01:37;;;;;;;5.47;3.63;;;18.60;70.20;;;;;;21081348;28;20241;-64
2022/05/21 09:11:41;;;;;;;3.17;1.80;;;18.70;70.00;;;;;;21023790;28;20204;-73
2022/05/21 09:21:46;;;;;;;3.30;1.50;;;18.60;70.40;;;;;;20997351;28;20247;-65
2022/05/21 09:31:48;;;;;;;3.97;1.40;;;18.90;70.50;;;;;;21042291;28;20568;-76
2022/05/21 09:42:09;;;;;;;1.80;1.20;;;18.90;70.00;;;;;;21098603;28;20226;-75
2022/05/21 09:52:22;;;;;;;1.60;1.00;;;19.00;70.00;;;;;;21078838;28;20264;-71
2022/05/21 10:02:38;;;;;;;3.43;1.30;;;19.30;67.30;;;;;;21078016;28;20234;-70
2022/05/21 10:12:41;;;;;;;2.53;1.17;;;19.10;66.50;;;;;;21011842;28;20245;-70
2022/05/21 10:22:58;;;;;;;3.53;1.20;;;19.20;66.10;;;;;;21059892;28;20238;-75
2022/05/21 10:33:16;;;;;;;3.47;1.30;;;19.40;65.00;;;;;;21077732;28;20241;-77
2022/05/21 10:43:29;;;;;;;3.90;1.50;;;19.40;63.70;;;;;;21073487;28;20292;-67
2022/05/21 10:53:46;;;;;;;5.97;1.90;;;19.50;64.40;;;;;;21074183;28;20210;-68
2022/05/21 11:04:21;;;;;;;4.10;1.50;;;19.60;63.10;;;;;;21085803;28;20261;-71
2022/05/21 11:14:27;;;;;;;3.23;1.77;;;19.30;62.30;;;;;;21090741;28;20215;-74
2022/05/21 11:24:40;;;;;;;3.63;1.47;;;19.30;63.50;;;;;;21088960;28;20725;-72
2022/05/21 11:45:08;;;;;;;2.20;1.40;;;20.20;61.10;;;;;;21087514;28;20240;-71
2022/05/21 11:55:29;;;;;;;2.17;1.50;;;20.40;59.60;;;;;;21086854;28;20202;-71
2022/05/21 12:05:34;;;;;;;4.40;1.80;;;20.50;57.70;;;;;;21086432;28;20242;-70
2022/05/21 12:15:53;;;;;;;1.63;1.07;;;20.40;57.50;;;;;;21084303;28;20219;-69
2022/05/21 12:26:19;;;;;;;3.83;1.50;;;20.50;57.20;;;;;;21085548;28;20579;-68
2022/05/21 12:36:43;;;;;;;5.53;1.60;;;20.90;56.60;;;;;;21076483;28;20202;-64
2022/05/21 12:46:49;;;;;;;5.77;2.20;;;21.30;56.20;;;;;;21055987;28;20234;-65
2022/05/21 12:56:53;;;;;;;4.00;2.33;;;21.30;55.10;;;;;;21005065;28;20247;-62
2022/05/21 13:07:20;;;;;;;5.33;3.17;;;21.20;55.40;;;;;;21020019;28;20330;-72
2022/05/21 13:17:46;;;;;;;5.23;2.03;;;21.30;55.30;;;;;;21039954;28;20242;-63
2022/05/21 13:27:52;;;;;;;4.03;1.90;;;21.50;53.80;;;;;;20999605;28;20325;-67
2022/05/21 13:37:54;;;;;;;2.93;1.37;;;21.50;53.10;;;;;;20997305;28;20224;-64
2022/05/21 13:48:16;;;;;;;2.67;1.57;;;21.60;53.60;;;;;;20998252;28;20713;-73
2022/05/21 13:58:31;;;;;;;4.10;2.30;;;21.70;53.20;;;;;;21011728;28;20214;-71
2022/05/21 14:08:36;;;;;;;3.00;1.90;;;21.50;53.10;;;;;;20997405;28;20242;-72
2022/05/21 14:18:42;;;;;;;4.77;2.20;;;21.20;53.40;;;;;;20994804;28;20238;-71
2022/05/21 14:28:45;;;;;;;3.20;2.20;;;21.30;53.80;;;;;;20994760;28;20242;-72
2022/05/21 14:38:47;;;;;;;2.67;1.70;;;21.50;53.00;;;;;;21019780;28;20207;-68
2022/05/21 14:48:49;;;;;;;5.77;1.67;;;22.20;51.50;;;;;;21042893;28;20701;-77
2022/05/21 14:58:53;;;;;;;8.00;2.10;;;22.60;50.60;;;;;;21091112;28;20207;-71
2022/05/21 15:08:57;;;;;;;3.37;1.70;;;22.50;50.60;;;;;;21092535;28;20237;-74
2022/05/21 15:19:00;;;;;;;1.47;1.33;;;21.80;50.40;;;;;;21092256;28;20231;-74
2022/05/21 15:29:03;;;;;;;2.87;1.33;;;21.70;49.90;;;;;;21056261;28;20242;-65
2022/05/21 15:39:05;;;;;;;3.13;1.50;;;21.50;49.80;;;;;;21101280;28;20213;-67
2022/05/21 15:49:07;;;;;;;2.13;1.40;;;21.30;49.10;;;;;;21116319;28;20269;-68
2022/05/21 15:59:30;;;;;;;2.67;1.30;;;21.60;49.50;;;;;;21114254;28;20211;-72
2022/05/21 16:09:32;;;;;;;2.50;1.50;;;21.70;48.40;;;;;;21096730;28;20241;-69
2022/05/21 16:19:34;;;;;;;2.10;1.27;;;21.70;48.20;;;;;;21092179;28;20238;-69
2022/05/21 16:29:44;;;;;;;3.37;1.50;;;21.80;48.50;;;;;;21107960;28;20249;-67
2022/05/21 16:39:46;;;;;;;2.47;1.30;;;21.60;48.20;;;;;;21111057;28;20201;-76
2022/05/21 16:49:48;;;;;;;4.40;1.77;;;21.50;48.20;;;;;;21105692;28;20707;-69
2022/05/21 16:59:50;;;;;;;2.00;1.10;;;21.60;48.10;;;;;;21100440;28;20206;-73
2022/05/21 17:09:52;;;;;;;2.90;1.50;;;21.70;48.60;;;;;;21123458;28;20227;-67
2022/05/21 17:19:54;;;;;;;7.60;4.93;;;21.40;48.80;;;;;;21132547;28;20271;-64
2022/05/21 17:40:17;;;;;;;4.77;2.53;;;21.00;48.90;;;;;;21117719;28;20253;-63
2022/05/21 17:50:23;;;;;;;3.10;1.43;;;21.00;49.70;;;;;;21118771;28;20292;-71
2022/05/21 18:00:26;;;;;;;4.73;1.80;;;21.00;50.40;;;;;;21109106;28;20304;-71
2022/05/21 18:10:28;;;;;;;5.17;2.00;;;20.80;51.00;;;;;;21123313;28;20213;-71
2022/05/21 18:20:30;;;;;;;2.50;1.50;;;20.70;51.70;;;;;;21147409;28;20241;-74
2022/05/21 18:30:32;;;;;;;2.80;1.40;;;20.70;52.20;;;;;;21148907;28;20206;-71
2022/05/21 18:40:34;;;;;;;5.00;1.50;;;20.60;52.80;;;;;;21145807;28;20237;-69
2022/05/21 18:50:37;;;;;;;4.83;1.50;;;20.40;53.50;;;;;;21105616;28;20209;-70
2022/05/21 19:00:41;;;;;;;2.23;1.40;;;20.30;54.00;;;;;;21057293;28;20227;-71
2022/05/21 19:10:45;;;;;;;3.70;1.60;;;20.30;54.80;;;;;;21068105;28;20666;-74
2022/05/21 19:20:47;;;;;;;3.53;1.60;;;20.10;55.00;;;;;;21059801;28;20313;-66
2022/05/21 19:30:48;;;;;;;2.90;1.60;;;20.00;55.50;;;;;;21056356;28;20301;-67
2022/05/21 19:51:10;;;;;;;3.73;2.00;;;19.80;56.80;;;;;;21042768;28;20267;-71
2022/05/21 20:01:12;;;;;;;3.73;1.53;;;19.70;57.80;;;;;;21048249;28;20236;-66
2022/05/21 20:11:14;;;;;;;4.53;1.90;;;19.60;58.60;;;;;;21042035;28;20201;-67
2022/05/21 20:21:16;;;;;;;6.50;1.93;;;19.50;59.90;;;;;;21065220;28;20256;-65
2022/05/21 20:31:19;;;;;;;7.30;2.50;;;19.30;62.20;;;;;;21063610;28;20205;-73
2022/05/21 20:41:20;;;;;;;3.23;2.07;;;19.20;63.60;;;;;;21045019;28;20264;-66
2022/05/21 20:51:22;;;;;;;5.17;2.50;;;19.10;64.80;;;;;;21046330;28;20238;-67
2022/05/21 21:01:24;;;;;;;4.03;2.40;;;18.80;65.90;;;;;;21048833;28;20274;-66
2022/05/21 21:11:26;;;;;;;5.43;2.40;;;18.70;67.00;;;;;;21045562;28;20222;-68
2022/05/21 21:21:30;;;;;;;6.80;2.93;;;18.50;67.40;;;;;;21050078;28;20242;-68
2022/05/21 21:31:32;;;;;;;4.70;2.60;;;18.30;68.30;;;;;;21048023;28;20213;-71
2022/05/21 21:41:34;;;;;;;4.63;2.70;;;18.10;69.40;;;;;;21046304;28;20287;-69
2022/05/21 21:51:36;;;;;;;5.60;3.17;;;17.90;70.40;;;;;;21054564;28;20221;-71
2022/05/21 22:01:42;;;;;;;3.53;2.70;;;17.70;71.30;;;;;;21058113;28;20231;-71
2022/05/21 22:11:45;;;;;;;5.57;2.70;;;17.60;72.20;;;;;;21053573;28;20282;-70
2022/05/21 22:21:50;;;;;;;4.67;2.63;;;17.40;73.30;;;;;;21047069;28;20273;-73
2022/05/21 22:31:53;;;;;;;5.13;2.30;;;17.30;74.60;;;;;;21046527;28;20217;-71
2022/05/21 22:41:54;;;;;;;7.00;2.73;;;17.20;75.50;;;;;;21045766;28;20301;-65
2022/05/21 22:51:56;;;;;;;6.53;2.60;;;17.10;76.20;;;;;;21060653;28;20259;-74
2022/05/21 23:01:58;;;;;;;6.20;2.57;;;16.90;77.20;;;;;;21105574;28;20235;-68
2022/05/21 23:12:00;;;;;;;6.83;3.30;;;16.70;78.30;;;;;;21141861;28;20218;-68
2022/05/21 23:32:22;;;;;;;5.90;2.70;;;16.50;79.50;;;;;;21125570;28;20634;-71
2022/05/21 23:42:24;;;;;;;6.03;3.27;;;16.40;80.10;;;;;;21116134;28;20230;-64
2022/05/21 23:52:26;;;;;;;4.40;2.87;;;16.30;80.70;;;;;;21121260;28;20545;-64
